Time;durP1;ratioP1;P1;durP2;ratioP2;P2;SDS_P1;SDS_P2;PMS_P1;PMS_P2;Temp;Humidity;BMP_temperature;BMP_pressure;BME280_temperature;BME280_humidity;BME280_pressure;Samples;Min_cycle;Max_cycle;Signal;HPM_P1;HPM_P2
2022/10/06 00:00:49;;;;;;;4.25;3.90;;;16.60;90.40;;;;;;5018708;28;20266;-87
2022/10/06 00:03:16;;;;;;;7.35;3.63;;;16.60;90.60;;;;;;5021104;28;20211;-86
2022/10/06 00:05:42;;;;;;;4.43;4.03;;;16.50;91.30;;;;;;5025604;28;20187;-86
2022/10/06 00:08:08;;;;;;;4.10;3.80;;;16.50;91.60;;;;;;5029594;28;20188;-86
2022/10/06 00:10:34;;;;;;;4.35;3.95;;;16.50;91.80;;;;;;5022485;28;20192;-86
2022/10/06 00:13:00;;;;;;;5.57;3.85;;;16.50;91.30;;;;;;5021757;28;20221;-86
2022/10/06 00:15:29;;;;;;;5.68;3.78;;;16.40;91.60;;;;;;5021965;28;20193;-86
2022/10/06 00:17:55;;;;;;;4.90;3.55;;;16.50;91.40;;;;;;5021941;28;20185;-87
2022/10/06 00:20:22;;;;;;;4.93;3.53;;;16.60;91.80;;;;;;5022415;28;20212;-86
2022/10/06 00:22:51;;;;;;;5.00;3.75;;;16.60;90.90;;;;;;5022726;28;20216;-86
2022/10/06 00:25:19;;;;;;;6.60;3.45;;;16.60;90.50;;;;;;5021325;28;20199;-87
2022/10/06 00:27:47;;;;;;;4.65;3.90;;;16.60;91.30;;;;;;5020550;28;20192;-86
2022/10/06 00:30:16;;;;;;;4.57;4.18;;;16.60;90.50;;;;;;5021326;28;20191;-86
2022/10/06 00:32:51;;;;;;;4.22;3.80;;;16.70;90.30;;;;;;5030170;28;20731;-87
2022/10/06 00:35:16;;;;;;;7.13;4.47;;;16.80;89.20;;;;;;5017661;28;20196;-86
2022/10/06 00:37:42;;;;;;;6.00;4.50;;;16.80;88.80;;;;;;5019882;28;20200;-87
2022/10/06 00:40:09;;;;;;;4.68;4.10;;;16.80;89.30;;;;;;5019713;28;20214;-86
2022/10/06 00:43:05;;;;;;;6.75;4.40;;;16.70;90.00;;;;;;5016094;28;20239;-87
2022/10/06 00:45:47;;;;;;;4.32;3.95;;;16.60;90.60;;;;;;5022406;28;20276;-88
2022/10/06 00:48:20;;;;;;;5.03;3.85;;;16.50;91.10;;;;;;5036652;28;20215;-88
2022/10/06 00:50:46;;;;;;;5.38;4.22;;;16.60;90.90;;;;;;5029902;28;20208;-87
2022/10/06 00:53:13;;;;;;;4.43;4.03;;;16.70;90.80;;;;;;5009229;28;20604;-86
2022/10/06 00:55:39;;;;;;;6.65;3.92;;;16.50;91.40;;;;;;5018679;28;20189;-86
2022/10/06 00:58:06;;;;;;;5.78;3.92;;;16.50;92.30;;;;;;5018811;28;20198;-87
2022/10/06 01:00:32;;;;;;;5.77;3.93;;;16.30;93.40;;;;;;5022845;28;20215;-86
2022/10/06 01:03:10;;;;;;;4.60;3.90;;;16.30;93.70;;;;;;5024842;28;20199;-86
2022/10/06 01:05:42;;;;;;;4.50;4.10;;;16.20;94.20;;;;;;5004637;28;20199;-86
2022/10/06 01:08:08;;;;;;;5.77;4.20;;;16.20;94.50;;;;;;5021313;28;20187;-86
2022/10/06 01:10:33;;;;;;;4.50;4.10;;;16.20;95.10;;;;;;5019472;28;20228;-87
2022/10/06 01:13:00;;;;;;;5.93;4.10;;;16.20;95.60;;;;;;5020085;28;20213;-87
2022/10/06 01:15:27;;;;;;;5.43;4.23;;;16.20;95.90;;;;;;5018720;28;20256;-87
2022/10/06 01:18:12;;;;;;;6.10;4.37;;;16.20;95.40;;;;;;5023026;28;20200;-87
2022/10/06 01:20:49;;;;;;;4.90;4.50;;;16.20;95.40;;;;;;5021351;28;20239;-87
2022/10/06 01:23:15;;;;;;;4.77;4.27;;;16.20;95.30;;;;;;5022777;28;20214;-86
2022/10/06 01:25:41;;;;;;;5.00;4.07;;;16.20;95.70;;;;;;5022796;28;20195;-87
2022/10/06 01:28:08;;;;;;;4.90;4.10;;;16.20;95.20;;;;;;5022886;28;20256;-86
2022/10/06 01:30:40;;;;;;;4.63;4.23;;;16.10;95.60;;;;;;5023103;28;20586;-87
2022/10/06 01:33:06;;;;;;;7.57;4.10;;;16.10;95.90;;;;;;5025796;28;20205;-87
2022/10/06 01:35:32;;;;;;;5.75;3.95;;;16.10;95.90;;;;;;5022613;28;20206;-87
2022/10/06 01:37:58;;;;;;;4.32;4.03;;;16.10;96.30;;;;;;5023198;28;20227;-87
2022/10/06 01:40:25;;;;;;;4.40;4.00;;;16.20;96.10;;;;;;5023117;28;20461;-88
2022/10/06 01:42:53;;;;;;;4.32;3.90;;;16.30;94.70;;;;;;5022677;28;20212;-86
2022/10/06 01:45:18;;;;;;;4.13;3.67;;;16.40;94.10;;;;;;5022024;28;20248;-87
2022/10/06 01:47:44;;;;;;;4.57;3.78;;;16.40;94.60;;;;;;5015545;28;20213;-87
2022/10/06 01:50:09;;;;;;;6.43;4.05;;;16.40;94.80;;;;;;5004039;28;20243;-87
2022/10/06 01:52:35;;;;;;;4.63;4.10;;;16.60;93.90;;;;;;5020686;28;20214;-87
2022/10/06 01:55:01;;;;;;;4.03;3.63;;;16.60;93.30;;;;;;5021050;28;20197;-87
2022/10/06 01:57:27;;;;;;;4.22;3.88;;;16.60;93.90;;;;;;5020774;28;20195;-87
2022/10/06 01:59:52;;;;;;;4.78;4.38;;;16.50;93.80;;;;;;5023141;28;20200;-87
2022/10/06 02:02:18;;;;;;;4.72;4.32;;;16.20;94.90;;;;;;5023287;28;20293;-87
2022/10/06 02:04:44;;;;;;;8.15;4.68;;;16.10;95.90;;;;;;5023677;28;20246;-87
2022/10/06 02:07:11;;;;;;;5.38;4.20;;;16.10;96.30;;;;;;5023274;28;20335;-87
2022/10/06 02:09:36;;;;;;;5.32;3.95;;;16.10;96.30;;;;;;5023233;28;20192;-87
2022/10/06 02:12:03;;;;;;;6.47;3.90;;;16.30;95.50;;;;;;5023167;28;20232;-86
2022/10/06 02:14:30;;;;;;;5.15;3.70;;;16.30;95.50;;;;;;5021478;28;20227;-87
2022/10/06 02:16:56;;;;;;;5.32;3.90;;;16.40;95.10;;;;;;5024219;28;20208;-87
2022/10/06 02:19:22;;;;;;;5.35;4.07;;;16.40;95.20;;;;;;5023172;28;20197;-87
2022/10/06 02:21:47;;;;;;;4.30;3.92;;;16.30;95.90;;;;;;5015689;28;20215;-87
2022/10/06 02:24:13;;;;;;;4.47;3.88;;;16.30;95.70;;;;;;5005460;28;20223;-88
2022/10/06 02:26:39;;;;;;;4.75;4.15;;;16.20;96.00;;;;;;5022271;28;20196;-87
2022/10/06 02:29:05;;;;;;;4.18;3.83;;;16.20;96.90;;;;;;5023182;28;20188;-86
2022/10/06 02:31:31;;;;;;;5.72;3.92;;;16.20;97.30;;;;;;5023406;28;20217;-87
2022/10/06 02:33:57;;;;;;;4.53;4.13;;;16.20;97.00;;;;;;5023631;28;20212;-87
2022/10/06 02:36:23;;;;;;;4.55;4.15;;;16.30;97.10;;;;;;5023713;28;20200;-87
2022/10/06 02:38:49;;;;;;;4.95;3.97;;;16.40;96.40;;;;;;5022704;28;20532;-86
2022/10/06 02:41:15;;;;;;;5.07;4.57;;;16.40;96.20;;;;;;5032362;28;20232;-88
2022/10/06 02:43:40;;;;;;;4.80;4.40;;;16.50;94.70;;;;;;5027804;28;20311;-89
2022/10/06 02:46:13;;;;;;;4.95;4.50;;;16.40;95.20;;;;;;5035686;28;20199;-88
2022/10/06 02:48:39;;;;;;;4.68;4.22;;;16.40;94.70;;;;;;5022219;28;20196;-87
2022/10/06 02:51:09;;;;;;;4.75;4.20;;;16.40;95.40;;;;;;5021437;28;20198;-87
2022/10/06 02:53:35;;;;;;;4.55;3.92;;;16.40;95.30;;;;;;5021648;28;20287;-86
2022/10/06 02:56:11;;;;;;;4.95;4.15;;;16.30;96.00;;;;;;5022501;28;20623;-86
2022/10/06 02:58:41;;;;;;;4.55;4.15;;;16.40;95.90;;;;;;5021647;28;20201;-87
2022/10/06 03:01:13;;;;;;;4.13;3.83;;;16.40;95.70;;;;;;5021035;28;20200;-87
2022/10/06 03:03:39;;;;;;;4.40;4.00;;;16.40;95.80;;;;;;5017733;28;20685;-87
2022/10/06 03:06:20;;;;;;;4.65;4.07;;;16.40;95.70;;;;;;5012897;28;20189;-87
2022/10/06 03:08:58;;;;;;;4.78;4.38;;;16.50;95.30;;;;;;5026183;28;20289;-87
2022/10/06 03:11:29;;;;;;;4.65;4.10;;;16.40;95.50;;;;;;5021385;28;20203;-87
2022/10/06 03:13:55;;;;;;;4.82;4.25;;;16.40;96.10;;;;;;5021764;28;20229;-87
2022/10/06 03:16:27;;;;;;;7.80;4.93;;;16.30;97.10;;;;;;5021237;28;20203;-87
2022/10/06 03:18:54;;;;;;;6.50;4.10;;;16.20;97.80;;;;;;5020456;28;20268;-89
2022/10/06 03:21:22;;;;;;;5.90;4.30;;;16.00;99.20;;;;;;5021055;28;20238;-87
2022/10/06 03:23:49;;;;;;;6.03;4.60;;;16.10;99.40;;;;;;5003411;28;20213;-87
2022/10/06 03:26:18;;;;;;;4.90;4.40;;;16.10;99.70;;;;;;5019554;28;20194;-88
2022/10/06 03:28:44;;;;;;;4.75;4.28;;;16.20;99.60;;;;;;5021237;28;20198;-88
2022/10/06 03:31:11;;;;;;;7.63;4.65;;;16.10;99.90;;;;;;5020404;28;20209;-87
2022/10/06 03:33:38;;;;;;;5.10;4.60;;;16.00;99.90;;;;;;5021422;28;20215;-87
2022/10/06 03:36:10;;;;;;;6.27;4.53;;;16.00;99.90;;;;;;5037480;28;20184;-88
2022/10/06 03:38:36;;;;;;;5.70;4.70;;;16.10;99.90;;;;;;5035938;28;20190;-88
2022/10/06 03:41:23;;;;;;;5.50;4.75;;;16.10;99.90;;;;;;5027270;28;20230;-87
2022/10/06 03:43:51;;;;;;;5.88;4.90;;;16.20;99.90;;;;;;5018419;28;20210;-86
2022/10/06 03:46:19;;;;;;;6.72;4.47;;;16.30;99.90;;;;;;5016655;28;20191;-86
2022/10/06 03:48:46;;;;;;;8.05;4.60;;;16.30;99.90;;;;;;5016843;28;20572;-87
2022/10/06 03:51:13;;;;;;;5.30;4.88;;;16.40;99.90;;;;;;5016316;28;20264;-87
2022/10/06 03:53:39;;;;;;;4.90;4.30;;;16.40;99.60;;;;;;5014963;28;20254;-87
2022/10/06 03:56:12;;;;;;;4.75;4.03;;;16.40;99.40;;;;;;5016509;28;20199;-87
2022/10/06 03:58:40;;;;;;;5.07;4.57;;;16.40;99.20;;;;;;5017143;28;20185;-87
2022/10/06 04:01:09;;;;;;;4.80;4.25;;;16.40;99.90;;;;;;5016558;28;20301;-87
2022/10/06 04:03:35;;;;;;;5.25;4.63;;;16.30;99.90;;;;;;5028321;28;20214;-87
2022/10/06 04:06:03;;;;;;;5.95;3.95;;;16.40;99.60;;;;;;5017741;28;20738;-87
2022/10/06 04:08:30;;;;;;;4.20;3.88;;;16.40;99.80;;;;;;5018228;28;20550;-87
2022/10/06 04:11:07;;;;;;;5.30;4.80;;;16.40;99.80;;;;;;5021720;28;20186;-87
2022/10/06 04:13:34;;;;;;;5.15;4.47;;;16.40;99.90;;;;;;5020019;28;20216;-87
2022/10/06 04:16:18;;;;;;;4.43;4.03;;;16.40;99.50;;;;;;5016085;28;20190;-87
2022/10/06 04:18:48;;;;;;;5.53;4.57;;;16.40;99.50;;;;;;5011588;28;20561;-87
2022/10/06 04:21:14;;;;;;;4.60;4.10;;;16.50;99.90;;;;;;5018559;28;20550;-87
2022/10/06 04:23:40;;;;;;;4.47;4.07;;;16.50;99.90;;;;;;5019085;28;20218;-87
2022/10/06 04:26:15;;;;;;;4.63;4.22;;;16.60;99.50;;;;;;5020376;28;20200;-87
2022/10/06 04:28:45;;;;;;;4.47;4.07;;;16.70;99.70;;;;;;5018161;28;20202;-88
2022/10/06 04:31:14;;;;;;;5.53;5.00;;;16.60;99.50;;;;;;5017158;28;20208;-88
2022/10/06 04:33:41;;;;;;;6.03;5.22;;;16.60;99.90;;;;;;5015516;28;20584;-87
2022/10/06 04:36:09;;;;;;;4.90;4.35;;;16.50;99.90;;;;;;5016119;28;20211;-87
2022/10/06 04:38:35;;;;;;;6.43;4.95;;;16.50;99.90;;;;;;5017719;28;20668;-87
2022/10/06 04:41:10;;;;;;;6.20;5.10;;;16.50;99.90;;;;;;5016556;28;20291;-87
2022/10/06 04:43:36;;;;;;;6.45;4.82;;;16.40;99.90;;;;;;5023704;28;20288;-87
2022/10/06 04:46:03;;;;;;;5.18;4.72;;;16.30;99.90;;;;;;5017480;28;20849;-85
2022/10/06 04:48:30;;;;;;;8.02;4.82;;;16.20;99.90;;;;;;5016897;28;20216;-87
2022/10/06 04:51:09;;;;;;;5.78;5.03;;;16.20;99.90;;;;;;5018146;28;20196;-87
2022/10/06 04:53:35;;;;;;;6.17;4.87;;;16.30;99.90;;;;;;5018051;28;20757;-87
2022/10/06 04:56:04;;;;;;;5.47;4.97;;;16.40;99.90;;;;;;5019493;28;20223;-87
2022/10/06 04:58:35;;;;;;;5.97;5.23;;;16.30;99.90;;;;;;5026063;28;20190;-87
2022/10/06 05:01:01;;;;;;;7.50;5.07;;;16.20;99.90;;;;;;5018984;28;20218;-87
2022/10/06 05:03:28;;;;;;;4.67;4.20;;;16.20;99.90;;;;;;5023153;28;20243;-87
2022/10/06 05:06:06;;;;;;;5.53;4.73;;;16.20;99.90;;;;;;5020271;28;20192;-87
2022/10/06 05:08:33;;;;;;;5.77;5.13;;;16.10;99.90;;;;;;5017338;28;20176;-88
2022/10/06 05:11:04;;;;;;;7.40;4.80;;;16.20;99.90;;;;;;5011967;28;20194;-87
2022/10/06 05:13:30;;;;;;;5.30;4.80;;;16.20;99.90;;;;;;5011423;28;20312;-87
2022/10/06 05:16:00;;;;;;;5.57;4.80;;;16.20;99.90;;;;;;5014815;28;20184;-87
2022/10/06 05:18:27;;;;;;;5.63;4.97;;;16.30;99.90;;;;;;5012111;28;20216;-88
2022/10/06 05:20:57;;;;;;;5.83;5.20;;;16.30;99.90;;;;;;5011920;28;20218;-87
2022/10/06 05:23:26;;;;;;;5.10;4.60;;;16.40;99.90;;;;;;5010739;28;20193;-87
2022/10/06 05:25:54;;;;;;;6.03;4.57;;;16.40;99.90;;;;;;5013517;28;20819;-87
2022/10/06 05:28:21;;;;;;;8.97;5.50;;;16.30;99.90;;;;;;5011734;28;20192;-87
2022/10/06 05:31:01;;;;;;;5.43;4.93;;;16.40;99.90;;;;;;5011385;28;20211;-87
2022/10/06 05:33:29;;;;;;;5.57;4.90;;;16.30;99.90;;;;;;5012197;28;20211;-88
2022/10/06 05:35:57;;;;;;;8.67;4.47;;;16.30;99.90;;;;;;5010858;28;20209;-87
2022/10/06 05:38:24;;;;;;;8.20;4.53;;;16.10;99.90;;;;;;5012599;28;20264;-87
2022/10/06 05:40:50;;;;;;;5.47;4.37;;;16.20;99.90;;;;;;5008957;28;20287;-87
2022/10/06 05:43:17;;;;;;;6.83;6.23;;;16.10;99.90;;;;;;5013777;28;20249;-86
2022/10/06 05:45:57;;;;;;;5.00;4.40;;;16.10;99.90;;;;;;5012176;28;20199;-87
2022/10/06 05:48:24;;;;;;;5.03;4.07;;;16.10;99.90;;;;;;5014151;28;20207;-87
2022/10/06 05:51:01;;;;;;;4.93;3.87;;;16.30;99.90;;;;;;5010881;28;20708;-87
2022/10/06 05:53:29;;;;;;;4.17;3.70;;;16.30;99.90;;;;;;5008950;28;20207;-88
2022/10/06 05:56:08;;;;;;;6.07;3.80;;;16.40;99.90;;;;;;5007548;28;20191;-87
2022/10/06 05:58:35;;;;;;;6.40;5.90;;;16.30;99.90;;;;;;5012238;28;20268;-88
2022/10/06 06:01:14;;;;;;;5.57;4.07;;;16.40;99.90;;;;;;5012336;28;20363;-87
2022/10/06 06:03:42;;;;;;;5.70;3.80;;;16.50;99.90;;;;;;5029994;28;20262;-89
2022/10/06 06:06:35;;;;;;;8.30;4.00;;;16.40;99.50;;;;;;5010835;28;20323;-88
2022/10/06 06:09:05;;;;;;;4.90;4.00;;;16.30;99.90;;;;;;5009867;28;20685;-88
2022/10/06 06:11:32;;;;;;;4.80;3.47;;;16.30;99.30;;;;;;5003801;28;20212;-87
2022/10/06 06:14:00;;;;;;;4.05;3.65;;;16.30;99.60;;;;;;5006620;28;20284;-87
2022/10/06 06:16:27;;;;;;;5.90;3.90;;;16.40;98.70;;;;;;5007094;28;20182;-87
2022/10/06 06:18:53;;;;;;;3.87;3.37;;;16.50;98.40;;;;;;5006637;28;20184;-87
2022/10/06 06:21:19;;;;;;;5.55;3.22;;;16.50;98.50;;;;;;5004155;28;20254;-87
2022/10/06 06:23:46;;;;;;;3.92;3.40;;;16.50;97.80;;;;;;5028876;28;20279;-89
2022/10/06 06:26:18;;;;;;;5.68;3.25;;;16.50;97.60;;;;;;5037657;28;20251;-88
2022/10/06 06:28:45;;;;;;;5.90;3.15;;;16.50;97.70;;;;;;5017418;28;20188;-86
2022/10/06 06:31:11;;;;;;;3.47;3.17;;;16.40;98.70;;;;;;5014721;28;20212;-86
2022/10/06 06:33:39;;;;;;;4.78;3.65;;;16.40;97.50;;;;;;5014287;28;20298;-87
2022/10/06 06:36:15;;;;;;;26.75;13.15;;;16.50;97.70;;;;;;5014145;28;20258;-86
2022/10/06 06:38:41;;;;;;;17.80;6.88;;;16.60;97.80;;;;;;5012197;28;20196;-87
2022/10/06 06:41:17;;;;;;;10.85;6.18;;;16.60;97.80;;;;;;5012841;28;20273;-87
2022/10/06 06:43:43;;;;;;;7.05;3.55;;;16.50;96.30;;;;;;5008305;28;20297;-87
2022/10/06 06:46:10;;;;;;;4.28;2.80;;;16.40;97.20;;;;;;5011846;28;20221;-87
2022/10/06 06:48:36;;;;;;;3.88;3.05;;;16.40;97.00;;;;;;5012194;28;20212;-87
2022/10/06 06:51:03;;;;;;;6.18;3.00;;;16.40;95.50;;;;;;5015778;28;20251;-87
2022/10/06 06:53:30;;;;;;;4.28;2.97;;;16.40;95.10;;;;;;5018762;28;20218;-86
2022/10/06 06:55:55;;;;;;;6.22;3.63;;;16.50;95.80;;;;;;5015547;28;20192;-87
2022/10/06 06:58:21;;;;;;;4.93;2.87;;;16.50;94.50;;;;;;5015235;28;20218;-87
2022/10/06 07:00:47;;;;;;;5.22;2.83;;;16.50;94.90;;;;;;5014994;28;20314;-87
2022/10/06 07:03:20;;;;;;;4.83;3.00;;;16.40;95.10;;;;;;5016450;28;20271;-86
2022/10/06 07:05:46;;;;;;;5.00;3.03;;;16.50;93.90;;;;;;5015926;28;20745;-86
2022/10/06 07:08:14;;;;;;;3.73;2.70;;;16.50;94.30;;;;;;5017322;28;20200;-87
2022/10/06 07:10:40;;;;;;;8.88;4.82;;;16.50;94.70;;;;;;5020035;28;20667;-86
2022/10/06 07:13:06;;;;;;;5.53;2.80;;;16.60;94.70;;;;;;5021389;28;20288;-87
2022/10/06 07:26:31;;;;;;;6.87;3.37;;;16.60;94.10;;;;;;5016308;28;20659;-86
2022/10/06 07:29:00;;;;;;;3.97;2.83;;;16.60;93.80;;;;;;5017306;28;20638;-87
2022/10/06 07:31:30;;;;;;;6.82;3.08;;;16.60;94.50;;;;;;5014345;28;20212;-87
2022/10/06 07:33:56;;;;;;;4.07;2.60;;;16.70;94.70;;;;;;5017727;28;20231;-87
2022/10/06 07:36:21;;;;;;;4.60;2.78;;;16.70;95.00;;;;;;5019771;28;20194;-87
2022/10/06 07:38:47;;;;;;;5.57;2.60;;;16.70;94.80;;;;;;5018263;28;20192;-87
2022/10/06 07:41:14;;;;;;;4.88;2.65;;;16.90;94.40;;;;;;5016053;28;20680;-87
2022/10/06 07:43:39;;;;;;;4.22;3.10;;;17.00;93.90;;;;;;5019289;28;20192;-85
2022/10/06 07:46:09;;;;;;;4.38;2.50;;;17.00;92.20;;;;;;5017226;28;20276;-85
2022/10/06 07:48:36;;;;;;;3.45;2.50;;;17.00;93.10;;;;;;5016225;28;20197;-85
2022/10/06 07:51:05;;;;;;;4.43;3.05;;;17.10;92.00;;;;;;5014754;28;20482;-84
2022/10/06 07:53:32;;;;;;;3.78;2.42;;;17.20;90.90;;;;;;5019848;28;20211;-84
2022/10/06 07:56:06;;;;;;;6.13;3.05;;;17.30;90.40;;;;;;5032503;28;20193;-84
2022/10/06 07:58:33;;;;;;;4.28;3.00;;;17.20;92.80;;;;;;5026141;28;20200;-86
2022/10/06 08:01:08;;;;;;;4.57;3.15;;;17.00;93.30;;;;;;5018657;28;20260;-85
2022/10/06 08:03:36;;;;;;;2.58;2.38;;;16.90;93.90;;;;;;5014985;28;20209;-85
2022/10/06 08:06:02;;;;;;;4.68;4.13;;;17.00;92.30;;;;;;5019657;28;20224;-86
2022/10/06 08:08:36;;;;;;;5.00;2.72;;;17.20;91.20;;;;;;5018139;28;20181;-86
2022/10/06 08:11:04;;;;;;;5.05;2.90;;;17.30;91.60;;;;;;5015693;28;20204;-85
2022/10/06 08:13:31;;;;;;;6.63;2.60;;;17.30;92.30;;;;;;5016222;28;20219;-86
2022/10/06 08:16:06;;;;;;;4.18;2.55;;;17.40;89.20;;;;;;5017831;28;20184;-86
2022/10/06 08:18:32;;;;;;;5.82;2.50;;;17.40;89.90;;;;;;5016877;28;20727;-86
2022/10/06 08:20:58;;;;;;;3.85;2.97;;;17.30;90.70;;;;;;5016187;28;20286;-85
2022/10/06 08:23:24;;;;;;;5.30;2.63;;;17.50;90.20;;;;;;5018841;28;20664;-84
2022/10/06 08:25:53;;;;;;;4.35;2.60;;;17.50;90.70;;;;;;5016432;28;20217;-84
2022/10/06 08:28:21;;;;;;;4.78;2.55;;;17.70;87.90;;;;;;5026745;28;20214;-85
2022/10/06 08:30:48;;;;;;;6.32;3.03;;;17.70;86.20;;;;;;5016705;28;20267;-85
2022/10/06 08:33:13;;;;;;;7.82;2.97;;;17.70;87.80;;;;;;5020175;28;20507;-85
2022/10/06 08:35:39;;;;;;;3.47;2.65;;;17.70;88.20;;;;;;5013678;28;20620;-85
2022/10/06 08:38:05;;;;;;;4.18;2.50;;;17.80;86.50;;;;;;5013356;28;20205;-85
2022/10/06 08:40:31;;;;;;;6.40;2.63;;;17.80;86.90;;;;;;5018867;28;20190;-84
2022/10/06 08:43:01;;;;;;;6.45;3.28;;;17.90;87.00;;;;;;5014336;28;20570;-85
2022/10/06 08:45:38;;;;;;;6.95;2.60;;;18.10;86.50;;;;;;5013409;28;20239;-85
2022/10/06 08:48:09;;;;;;;2.58;2.30;;;18.10;86.30;;;;;;5014735;28;20607;-85
2022/10/06 08:50:44;;;;;;;4.53;2.72;;;18.30;83.90;;;;;;5015272;28;20192;-85
2022/10/06 08:53:20;;;;;;;6.78;3.15;;;18.00;85.30;;;;;;5018290;28;20215;-85
2022/10/06 08:55:52;;;;;;;3.58;2.80;;;17.90;86.20;;;;;;5010485;28;20640;-85
2022/10/06 08:58:35;;;;;;;4.85;2.70;;;18.20;81.30;;;;;;5012538;28;20185;-85
2022/10/06 09:01:17;;;;;;;6.05;2.88;;;18.40;80.70;;;;;;5016519;28;20677;-86
2022/10/06 09:03:47;;;;;;;4.95;3.08;;;18.60;81.00;;;;;;5011429;28;20475;-86
2022/10/06 09:06:41;;;;;;;5.03;2.75;;;18.50;77.80;;;;;;5014663;28;20190;-87
2022/10/06 09:09:34;;;;;;;6.95;3.00;;;18.50;78.50;;;;;;5023858;28;20197;-87
2022/10/06 09:12:37;;;;;;;3.72;3.10;;;18.50;76.60;;;;;;5035842;28;20228;-88
2022/10/06 09:15:18;;;;;;;5.25;2.75;;;18.60;75.40;;;;;;5028482;28;20196;-87
2022/10/06 09:17:59;;;;;;;4.32;2.60;;;18.70;76.20;;;;;;5004178;28;20261;-87
2022/10/06 09:20:33;;;;;;;7.32;2.97;;;18.50;76.00;;;;;;5011014;28;20193;-87
2022/10/06 09:23:03;;;;;;;7.80;3.10;;;18.50;77.80;;;;;;5014288;28;20692;-86
2022/10/06 09:25:29;;;;;;;6.88;3.05;;;18.50;75.40;;;;;;5013390;28;20624;-87
2022/10/06 09:27:57;;;;;;;5.53;2.90;;;18.60;75.20;;;;;;5014585;28;20197;-87
2022/10/06 09:30:23;;;;;;;7.95;3.45;;;18.60;76.10;;;;;;5015311;28;20233;-87
2022/10/06 09:32:58;;;;;;;4.10;2.80;;;18.80;76.70;;;;;;5010732;28;20710;-87
2022/10/06 09:35:26;;;;;;;6.20;3.05;;;19.00;74.00;;;;;;5011021;28;20185;-87
2022/10/06 09:37:53;;;;;;;6.35;2.95;;;18.90;74.80;;;;;;5014215;28;20285;-84
2022/10/06 09:40:47;;;;;;;4.38;3.20;;;18.70;76.30;;;;;;5012962;28;20260;-87
2022/10/06 09:43:27;;;;;;;4.50;2.95;;;18.80;76.60;;;;;;5009631;28;20696;-87
2022/10/06 09:45:54;;;;;;;7.85;3.17;;;18.80;75.30;;;;;;5012917;28;20197;-87
2022/10/06 09:48:23;;;;;;;5.47;3.03;;;19.00;71.40;;;;;;5016545;28;20192;-87
2022/10/06 09:51:07;;;;;;;4.00;2.90;;;19.00;75.10;;;;;;5033859;28;20257;-86
2022/10/06 09:53:33;;;;;;;8.02;3.30;;;18.80;75.20;;;;;;5014585;28;20268;-86
2022/10/06 09:56:03;;;;;;;6.50;3.00;;;18.50;76.60;;;;;;5015380;28;20267;-87
2022/10/06 09:58:38;;;;;;;8.43;3.33;;;18.50;78.00;;;;;;5014390;28;20192;-87
2022/10/06 10:01:07;;;;;;;4.97;2.65;;;18.50;76.60;;;;;;5010916;28;20712;-86
2022/10/06 10:03:51;;;;;;;5.68;2.85;;;18.70;77.00;;;;;;5011146;28;20217;-87
2022/10/06 10:06:29;;;;;;;6.38;2.92;;;18.90;75.50;;;;;;5004174;28;20256;-87
2022/10/06 10:09:20;;;;;;;6.43;3.20;;;19.30;73.00;;;;;;5008524;28;20188;-87
2022/10/06 10:14:44;;;;;;;6.40;2.88;;;19.00;75.00;;;;;;5019642;28;20277;-87
2022/10/06 10:17:19;;;;;;;7.20;3.55;;;18.70;74.90;;;;;;5026420;28;20189;-87
2022/10/06 10:19:51;;;;;;;5.05;2.75;;;18.90;76.20;;;;;;5027593;28;20192;-87
2022/10/06 10:22:35;;;;;;;6.78;3.03;;;19.00;74.20;;;;;;5010163;28;20592;-87
2022/10/06 10:25:31;;;;;;;5.43;3.00;;;19.20;74.10;;;;;;5009066;28;20176;-86
2022/10/06 10:28:16;;;;;;;5.82;2.70;;;19.20;74.70;;;;;;5003845;28;20183;-87
2022/10/06 10:31:09;;;;;;;4.38;2.85;;;19.30;74.30;;;;;;5005517;28;20299;-87
2022/10/06 10:33:39;;;;;;;5.43;2.80;;;19.50;70.70;;;;;;5004913;28;20751;-87
2022/10/06 10:36:08;;;;;;;4.43;2.67;;;19.60;70.90;;;;;;5005859;28;20645;-86
2022/10/06 10:38:39;;;;;;;8.07;3.15;;;19.10;72.30;;;;;;5004549;28;20759;-86
2022/10/06 10:41:28;;;;;;;6.05;3.03;;;19.00;74.10;;;;;;5002037;28;20219;-86
2022/10/06 10:44:34;;;;;;;5.68;3.00;;;19.00;76.40;;;;;;5005844;28;20224;-86
2022/10/06 10:47:13;;;;;;;7.78;3.00;;;18.80;74.50;;;;;;5006964;28;20217;-86
2022/10/06 10:49:46;;;;;;;7.72;3.40;;;18.80;74.90;;;;;;5008515;28;20564;-86
2022/10/06 10:52:17;;;;;;;5.40;2.95;;;18.90;74.70;;;;;;5009833;28;20223;-87
2022/10/06 10:54:46;;;;;;;6.05;2.70;;;18.70;75.50;;;;;;4994391;28;20202;-87
2022/10/06 10:57:16;;;;;;;4.93;2.67;;;18.90;74.00;;;;;;5009838;28;20215;-87
2022/10/06 11:00:15;;;;;;;5.53;3.55;;;19.10;73.80;;;;;;5008839;28;20202;-87
2022/10/06 11:02:40;;;;;;;6.65;3.15;;;19.10;72.80;;;;;;5009696;28;20707;-86
2022/10/06 11:05:29;;;;;;;3.20;2.90;;;19.30;71.60;;;;;;5010282;28;20272;-86
2022/10/06 11:08:06;;;;;;;6.95;3.70;;;19.30;71.70;;;;;;5008389;28;20248;-86
2022/10/06 11:10:48;;;;;;;4.72;3.10;;;19.40;71.90;;;;;;5012202;28;20178;-87
2022/10/06 11:13:28;;;;;;;6.93;3.13;;;19.90;70.50;;;;;;5010852;28;20205;-87
2022/10/06 11:16:26;;;;;;;6.82;3.30;;;20.20;68.90;;;;;;5010518;28;20205;-87
2022/10/06 11:18:58;;;;;;;5.25;3.10;;;21.00;64.20;;;;;;5012986;28;20178;-87
2022/10/06 11:21:31;;;;;;;3.67;3.10;;;20.80;66.40;;;;;;5033654;28;20221;-87
2022/10/06 11:24:24;;;;;;;4.68;2.90;;;20.30;67.20;;;;;;5013125;28;20214;-86
2022/10/06 11:27:17;;;;;;;6.35;3.17;;;20.00;68.50;;;;;;5012361;28;20190;-86
2022/10/06 11:30:09;;;;;;;6.13;3.22;;;20.60;67.30;;;;;;5007288;28;20182;-87
2022/10/06 11:33:00;;;;;;;5.47;3.08;;;20.90;63.70;;;;;;5009179;28;20236;-87
2022/10/06 11:35:40;;;;;;;4.60;3.25;;;20.90;61.80;;;;;;5014993;28;20240;-87
2022/10/06 11:38:15;;;;;;;6.18;3.13;;;21.50;60.80;;;;;;5008656;28;20192;-87
2022/10/06 11:40:53;;;;;;;5.88;3.42;;;22.30;58.20;;;;;;5022628;28;20216;-87
2022/10/06 11:43:56;;;;;;;4.63;3.20;;;22.40;58.60;;;;;;5026077;28;20209;-87
2022/10/06 11:46:37;;;;;;;6.45;3.13;;;22.40;56.50;;;;;;5028056;28;20672;-87
2022/10/06 11:49:28;;;;;;;8.63;3.25;;;22.20;56.40;;;;;;5028799;28;20190;-88
2022/10/06 11:52:17;;;;;;;5.53;3.10;;;22.20;57.30;;;;;;5017768;28;20191;-87
2022/10/06 11:54:53;;;;;;;5.38;2.92;;;21.90;56.90;;;;;;5000106;28;20201;-87
2022/10/06 11:57:22;;;;;;;5.68;3.10;;;22.40;54.50;;;;;;5027390;28;20248;-87
2022/10/06 11:59:52;;;;;;;4.68;3.15;;;22.60;52.30;;;;;;5026445;28;20174;-86
2022/10/06 12:02:37;;;;;;;4.60;3.00;;;22.40;54.00;;;;;;5010919;28;20228;-86
2022/10/06 12:05:09;;;;;;;5.05;3.28;;;22.20;53.90;;;;;;5011247;28;20202;-87
2022/10/06 12:07:53;;;;;;;5.22;3.00;;;22.10;55.40;;;;;;5007581;28;20264;-86
2022/10/06 12:10:28;;;;;;;4.15;2.90;;;21.70;57.40;;;;;;5010705;28;20589;-87
2022/10/06 12:13:15;;;;;;;5.50;2.65;;;21.90;56.80;;;;;;5008272;28;20217;-86
2022/10/06 12:16:00;;;;;;;6.70;3.20;;;21.70;54.80;;;;;;5010811;28;20189;-87
2022/10/06 12:18:35;;;;;;;5.82;2.72;;;21.50;57.30;;;;;;5008128;28;20181;-87
2022/10/06 12:21:29;;;;;;;7.57;3.05;;;21.20;58.20;;;;;;5009843;28;20288;-87
2022/10/06 12:24:02;;;;;;;6.75;3.08;;;20.80;59.10;;;;;;5005851;28;20252;-87
2022/10/06 12:26:39;;;;;;;4.53;2.88;;;20.30;60.60;;;;;;5010041;28;21250;-87
2022/10/06 12:29:28;;;;;;;5.20;2.90;;;20.30;62.90;;;;;;5007447;28;20292;-87
2022/10/06 12:32:15;;;;;;;5.07;2.60;;;20.40;62.10;;;;;;5007066;28;20209;-87
2022/10/06 12:34:51;;;;;;;4.28;3.38;;;20.70;62.00;;;;;;5009973;28;20188;-87
2022/10/06 12:37:31;;;;;;;6.25;3.60;;;20.60;64.60;;;;;;5008770;28;20478;-87
2022/10/06 12:40:35;;;;;;;5.40;3.25;;;20.40;65.10;;;;;;5007712;28;20185;-87
2022/10/06 12:43:21;;;;;;;4.72;2.90;;;20.20;66.60;;;;;;5009218;28;20208;-87
2022/10/06 12:46:11;;;;;;;4.22;3.20;;;20.10;67.00;;;;;;5005517;28;20186;-87
2022/10/06 12:49:00;;;;;;;4.50;3.10;;;19.90;65.70;;;;;;5011280;28;20339;-87
2022/10/06 12:51:42;;;;;;;6.43;2.70;;;20.10;65.80;;;;;;5010721;28;20182;-87
2022/10/06 12:54:27;;;;;;;6.93;2.97;;;20.40;64.40;;;;;;5008607;28;20224;-87
2022/10/06 12:56:58;;;;;;;5.72;3.40;;;20.50;63.10;;;;;;5008270;28;20182;-87
2022/10/06 12:59:25;;;;;;;7.43;3.42;;;20.80;63.30;;;;;;5007944;28;20174;-87
2022/10/06 13:01:54;;;;;;;4.45;3.25;;;21.60;59.40;;;;;;5007660;28;20225;-87
2022/10/06 13:04:47;;;;;;;4.90;3.05;;;21.70;59.90;;;;;;5007883;28;20255;-87
2022/10/06 13:07:32;;;;;;;5.28;3.17;;;21.90;57.20;;;;;;5002943;28;20187;-87
2022/10/06 13:10:13;;;;;;;5.35;3.55;;;21.60;58.60;;;;;;5008814;28;20182;-88
2022/10/06 13:12:40;;;;;;;4.53;3.17;;;22.00;57.20;;;;;;5008263;28;20241;-87
2022/10/06 13:15:09;;;;;;;5.05;3.22;;;21.90;56.60;;;;;;5011039;28;20220;-88
2022/10/06 13:17:47;;;;;;;4.40;3.53;;;21.50;59.00;;;;;;5009790;28;20190;-87
2022/10/06 13:20:30;;;;;;;6.15;3.13;;;21.00;60.90;;;;;;5009599;28;20185;-87
2022/10/06 13:23:23;;;;;;;5.43;3.00;;;21.00;61.70;;;;;;5009278;28;20530;-87
2022/10/06 13:26:22;;;;;;;5.93;3.28;;;20.90;62.10;;;;;;5009136;28;20272;-88